createdAt,value
2016-12-02T00:00:44.130Z,6.1
2016-12-02T00:01:45.563Z,6.1
2016-12-02T00:02:47.005Z,6.1
2016-12-02T00:03:48.444Z,6.1
2016-12-02T00:04:49.879Z,6.1
2016-12-02T00:05:51.814Z,6.1
2016-12-02T00:06:53.244Z,6.1
2016-12-02T00:07:54.819Z,6.1
2016-12-02T00:08:56.256Z,6.1
2016-12-02T00:09:57.685Z,6.1
2016-12-02T00:12:01.032Z,6.1
2016-12-02T00:13:02.465Z,6.1
2016-12-02T00:14:03.901Z,6.1
2016-12-02T00:15:05.332Z,6.1
2016-12-02T00:16:07.266Z,6.1
2016-12-02T00:17:08.693Z,6.1
2016-12-02T00:18:10.118Z,6.1
2016-12-02T00:19:11.556Z,6.1
2016-12-02T00:20:13.495Z,6.1
2016-12-02T00:22:16.327Z,6.1
2016-12-02T00:23:17.762Z,6.1
2016-12-02T00:24:19.261Z,6.1
2016-12-02T00:26:22.591Z,6.1
2016-12-02T00:27:24.025Z,6.1
2016-12-02T00:28:25.460Z,6.1
2016-12-02T00:29:27.402Z,6.2
2016-12-02T00:30:28.836Z,6.1
2016-12-02T00:31:30.269Z,6.2
2016-12-02T00:33:33.612Z,6.2
2016-12-02T00:34:35.046Z,6.2
2016-12-02T00:35:36.624Z,6.2
2016-12-02T00:36:38.060Z,6.2
2016-12-02T00:37:39.495Z,6.2
2016-12-02T00:38:40.933Z,6.2
2016-12-02T00:39:42.869Z,6.2
2016-12-02T00:40:44.302Z,6.2
2016-12-02T00:41:45.735Z,6.2
2016-12-02T00:42:47.170Z,6.2
2016-12-02T00:43:49.110Z,6.2
2016-12-02T00:44:50.541Z,6.2
2016-12-02T00:45:51.978Z,6.2
2016-12-02T00:46:53.411Z,6.2
2016-12-02T00:47:55.489Z,6.2
2016-12-02T00:48:56.413Z,6.2
2016-12-02T00:49:58.353Z,6.2
2016-12-02T00:50:59.787Z,6.2
2016-12-02T00:52:01.224Z,6.2
2016-12-02T00:53:02.659Z,6.2
2016-12-02T00:54:04.224Z,6.2
2016-12-02T00:55:06.156Z,6.2
2016-12-02T00:56:07.587Z,6.2
2016-12-02T00:57:09.025Z,6.2
2016-12-02T00:58:10.458Z,6.2
2016-12-02T00:59:12.397Z,6.3
2016-12-02T01:00:13.832Z,6.3
2016-12-02T01:01:15.265Z,6.3
2016-12-02T01:02:16.699Z,6.3
2016-12-02T01:03:18.133Z,6.3
2016-12-02T01:04:20.067Z,6.3
2016-12-02T01:05:21.499Z,6.3
2016-12-02T01:06:22.933Z,6.3
2016-12-02T01:08:26.265Z,6.3
2016-12-02T01:09:27.829Z,6.3
2016-12-02T01:10:29.263Z,6.3
2016-12-02T01:11:30.704Z,6.3
2016-12-02T01:12:32.138Z,6.3
2016-12-02T01:13:34.075Z,6.3
2016-12-02T01:14:35.505Z,6.3
2016-12-02T01:15:36.963Z,6.3
2016-12-02T01:16:38.423Z,6.3
2016-12-02T01:17:39.861Z,6.3
2016-12-02T01:19:43.195Z,6.3
2016-12-02T01:20:44.623Z,6.3
2016-12-02T01:21:46.054Z,6.3
2016-12-02T01:22:47.992Z,6.3
2016-12-02T01:23:49.461Z,6.3
2016-12-02T01:24:50.896Z,6.3
2016-12-02T01:25:52.327Z,6.3
2016-12-02T01:26:54.271Z,6.3
2016-12-02T01:27:55.703Z,6.3
2016-12-02T01:28:57.205Z,6.3
2016-12-02T01:29:58.641Z,6.3
2016-12-02T01:31:00.075Z,6.3
2016-12-02T01:32:02.013Z,6.3
2016-12-02T01:33:03.446Z,6.3
2016-12-02T01:34:04.877Z,6.3
2016-12-02T01:35:06.309Z,6.3
2016-12-02T01:36:08.257Z,6.3
2016-12-02T01:37:09.830Z,6.3
2016-12-02T01:38:11.261Z,6.3
2016-12-02T01:39:12.712Z,6.3
2016-12-02T01:40:14.144Z,6.3
2016-12-02T01:41:15.581Z,6.3
2016-12-02T01:42:17.523Z,6.3
2016-12-02T01:43:18.967Z,6.3
2016-12-02T01:44:20.402Z,6.3
2016-12-02T01:45:21.831Z,6.3
2016-12-02T01:46:23.765Z,6.3
2016-12-02T01:47:25.203Z,6.3
2016-12-02T01:49:28.035Z,6.4
2016-12-02T01:51:31.371Z,6.4
2016-12-02T01:52:32.823Z,6.4
2016-12-02T01:53:34.266Z,6.4
2016-12-02T01:54:35.700Z,6.4
2016-12-02T01:55:37.634Z,6.4
2016-12-02T01:56:39.066Z,6.4
2016-12-02T01:58:42.401Z,6.4
2016-12-02T01:59:43.841Z,6.4
2016-12-02T02:00:45.268Z,6.4
2016-12-02T02:01:46.705Z,6.4
2016-12-02T02:02:48.138Z,6.4
2016-12-02T02:03:50.069Z,6.4
2016-12-02T02:04:51.493Z,6.4
2016-12-02T02:05:52.921Z,6.4
2016-12-02T02:06:54.356Z,6.4
2016-12-02T02:07:56.307Z,6.4
2016-12-02T02:08:57.745Z,6.4
2016-12-02T02:09:59.188Z,6.4
2016-12-02T02:11:00.618Z,6.4
2016-12-02T02:12:02.556Z,6.4
2016-12-02T02:13:03.994Z,6.4
2016-12-02T02:14:05.425Z,6.4
2016-12-02T02:15:06.864Z,6.4
2016-12-02T02:16:08.293Z,6.4
2016-12-02T02:17:10.230Z,6.4
2016-12-02T02:18:11.664Z,6.4
2016-12-02T02:19:13.099Z,6.4
2016-12-02T02:20:14.529Z,6.4
2016-12-02T02:22:17.864Z,6.4
2016-12-02T02:23:19.299Z,6.4
2016-12-02T02:24:20.730Z,6.4
2016-12-02T02:25:22.672Z,6.4
2016-12-02T02:26:24.111Z,6.4
2016-12-02T02:27:25.543Z,6.4
2016-12-02T02:28:26.970Z,6.4
2016-12-02T02:30:30.307Z,6.4
2016-12-02T02:31:31.748Z,6.4
2016-12-02T02:32:33.186Z,6.4
2016-12-02T02:33:35.125Z,6.4
2016-12-02T02:34:36.559Z,6.4
2016-12-02T02:35:37.988Z,6.4
2016-12-02T02:36:39.427Z,6.4
2016-12-02T02:37:41.360Z,6.4
2016-12-02T02:38:42.796Z,6.4
2016-12-02T02:39:44.233Z,6.4
2016-12-02T02:40:45.666Z,6.4
2016-12-02T02:41:47.597Z,6.5
2016-12-02T02:42:49.031Z,6.4
2016-12-02T02:43:50.462Z,6.5
2016-12-02T02:44:51.893Z,6.5
2016-12-02T02:45:53.830Z,6.5
2016-12-02T02:46:55.267Z,6.4
2016-12-02T02:47:56.703Z,6.5
2016-12-02T02:48:58.133Z,6.5
2016-12-02T02:50:00.081Z,6.5
2016-12-02T02:51:01.518Z,6.5
2016-12-02T02:52:02.950Z,6.5
2016-12-02T02:53:04.384Z,6.5
2016-12-02T02:54:05.822Z,6.5
2016-12-02T02:55:07.762Z,6.5
2016-12-02T02:56:09.200Z,6.5
2016-12-02T02:57:10.635Z,6.5
2016-12-02T02:58:12.066Z,6.5
2016-12-02T02:59:14.003Z,6.5
2016-12-02T03:00:15.441Z,6.5
2016-12-02T03:01:16.883Z,6.5
2016-12-02T03:02:18.315Z,6.5
2016-12-02T03:03:20.254Z,6.5
2016-12-02T03:04:21.686Z,6.5
2016-12-02T03:05:23.119Z,6.5
2016-12-02T03:06:24.552Z,6.5
2016-12-02T03:07:26.486Z,6.5
2016-12-02T03:09:29.323Z,6.6
2016-12-02T03:10:30.923Z,6.6
2016-12-02T03:11:32.357Z,6.6
2016-12-02T03:12:34.292Z,6.6
2016-12-02T03:13:35.725Z,6.6
2016-12-02T03:14:37.158Z,6.6
2016-12-02T03:15:38.588Z,6.6
2016-12-02T03:16:40.530Z,6.6
2016-12-02T03:17:41.963Z,6.6
2016-12-02T03:18:43.396Z,6.6
2016-12-02T03:19:44.826Z,6.6
2016-12-02T03:20:46.769Z,6.6
2016-12-02T03:21:48.200Z,6.6
2016-12-02T03:22:49.639Z,6.6
2016-12-02T03:23:51.076Z,6.6
2016-12-02T03:24:52.557Z,6.6
2016-12-02T03:25:54.544Z,6.6
2016-12-02T03:26:56.025Z,6.6
2016-12-02T03:27:57.509Z,6.7
2016-12-02T03:28:58.993Z,6.7
2016-12-02T03:30:00.474Z,6.7
2016-12-02T03:31:01.957Z,6.6
2016-12-02T03:32:03.945Z,6.7
2016-12-02T03:34:06.826Z,6.7
2016-12-02T03:36:09.701Z,6.7
2016-12-02T03:37:11.675Z,6.7
2016-12-02T03:38:13.152Z,6.7
2016-12-02T03:39:14.637Z,6.7
2016-12-02T03:41:17.522Z,6.7
2016-12-02T03:42:19.507Z,6.7
2016-12-02T03:43:20.984Z,6.7
2016-12-02T03:44:22.458Z,6.7
2016-12-02T03:45:23.933Z,6.7
2016-12-02T03:46:25.415Z,6.7
2016-12-02T03:47:26.895Z,6.7
2016-12-02T03:48:28.881Z,6.7
2016-12-02T03:49:30.362Z,6.7
2016-12-02T03:50:31.838Z,6.7
2016-12-02T03:51:33.316Z,6.7
2016-12-02T03:52:34.791Z,6.7
2016-12-02T03:53:36.272Z,6.7
2016-12-02T03:54:38.265Z,6.7
2016-12-02T03:55:39.744Z,6.7
2016-12-02T03:56:41.221Z,6.7
2016-12-02T03:57:42.702Z,6.7
2016-12-02T03:58:44.181Z,6.6
2016-12-02T03:59:45.661Z,6.6
2016-12-02T04:01:49.043Z,6.6
2016-12-02T04:02:50.528Z,6.6
2016-12-02T04:03:52.004Z,6.6
2016-12-02T04:04:53.481Z,6.6
2016-12-02T04:05:54.962Z,6.6
2016-12-02T04:06:56.942Z,6.6
2016-12-02T04:07:58.415Z,6.6
2016-12-02T04:08:59.896Z,6.6
2016-12-02T04:10:01.376Z,6.6
2016-12-02T04:11:02.998Z,6.6
2016-12-02T04:12:04.471Z,6.5
2016-12-02T04:13:05.949Z,6.5
2016-12-02T04:14:07.424Z,6.5
2016-12-02T04:15:09.403Z,6.5
2016-12-02T04:16:10.886Z,6.5
2016-12-02T04:17:12.362Z,6.5
2016-12-02T04:18:13.849Z,6.5
2016-12-02T04:19:15.329Z,6.5
2016-12-02T04:20:16.808Z,6.5
2016-12-02T04:21:18.786Z,6.5
2016-12-02T04:22:20.271Z,6.5
2016-12-02T04:23:21.750Z,6.5
2016-12-02T04:24:23.230Z,6.5
2016-12-02T04:25:24.707Z,6.5
2016-12-02T04:26:26.188Z,6.5
2016-12-02T04:27:27.661Z,6.5
2016-12-02T04:28:29.642Z,6.5
2016-12-02T04:29:31.121Z,6.5
2016-12-02T04:30:32.601Z,6.5
2016-12-02T04:31:34.087Z,6.5
2016-12-02T04:32:35.567Z,6.5
2016-12-02T04:33:37.047Z,6.5
2016-12-02T04:34:39.030Z,6.5
2016-12-02T04:37:43.379Z,6.5
2016-12-02T04:38:44.861Z,6.5
2016-12-02T04:39:46.342Z,6.5
2016-12-02T04:40:48.324Z,6.5
2016-12-02T04:41:49.802Z,6.5
2016-12-02T04:42:51.286Z,6.5
2016-12-02T04:43:52.762Z,6.5
2016-12-02T04:44:54.241Z,6.5
2016-12-02T04:45:55.724Z,6.5
2016-12-02T04:46:57.698Z,6.5
2016-12-02T04:47:59.180Z,6.4
2016-12-02T04:49:00.664Z,6.4
2016-12-02T04:50:02.140Z,6.4
2016-12-02T04:51:03.615Z,6.4
2016-12-02T04:52:05.093Z,6.4
2016-12-02T04:53:06.570Z,6.4
2016-12-02T04:54:08.556Z,6.3
2016-12-02T04:55:10.034Z,6.3
2016-12-02T04:56:11.512Z,6.3
2016-12-02T04:57:12.990Z,6.2
2016-12-02T04:58:14.465Z,6.2
2016-12-02T04:59:15.938Z,6.2
2016-12-02T05:00:17.416Z,6.2
2016-12-02T05:01:19.404Z,6.1
2016-12-02T05:02:20.880Z,6.1
2016-12-02T05:03:22.358Z,6.1
2016-12-02T05:04:23.840Z,6.1
2016-12-02T05:05:25.328Z,6.1
2016-12-02T05:06:26.808Z,6
2016-12-02T05:07:28.288Z,6
2016-12-02T05:09:31.670Z,6
2016-12-02T05:10:33.150Z,6
2016-12-02T05:11:34.635Z,6
2016-12-02T05:12:36.108Z,6
2016-12-02T05:13:37.591Z,5.9
2016-12-02T05:14:39.576Z,5.9
2016-12-02T05:16:42.590Z,5.9
2016-12-02T05:18:45.465Z,5.9
2016-12-02T05:19:46.948Z,5.9
2016-12-02T05:20:48.426Z,5.9
2016-12-02T05:21:49.906Z,5.9
2016-12-02T05:22:51.888Z,5.9
2016-12-02T05:23:53.366Z,5.9
2016-12-02T05:24:54.842Z,5.9
2016-12-02T05:25:56.322Z,5.9
2016-12-02T05:26:57.806Z,5.9
2016-12-02T05:27:59.285Z,5.8
2016-12-02T05:29:00.767Z,5.8
2016-12-02T05:30:02.244Z,5.8
2016-12-02T05:31:04.230Z,5.8
2016-12-02T05:32:05.705Z,5.8
2016-12-02T05:33:07.184Z,5.8
2016-12-02T05:35:10.070Z,5.8
2016-12-02T05:36:11.552Z,5.8
2016-12-02T05:37:13.029Z,5.8
2016-12-02T05:38:15.012Z,5.8
2016-12-02T05:39:16.490Z,5.8
2016-12-02T05:40:17.981Z,5.8
2016-12-02T05:41:19.480Z,5.8
2016-12-02T05:42:20.978Z,5.8
2016-12-02T05:43:22.455Z,5.8
2016-12-02T05:44:23.933Z,5.8
2016-12-02T05:46:27.309Z,5.7
2016-12-02T05:47:28.788Z,5.7
2016-12-02T05:49:31.658Z,5.7
2016-12-02T05:50:33.138Z,5.7
2016-12-02T05:51:34.694Z,5.7
2016-12-02T05:52:36.169Z,5.7
2016-12-02T05:53:37.649Z,5.7
2016-12-02T05:54:39.631Z,5.6
2016-12-02T05:55:41.107Z,5.6
2016-12-02T05:56:42.587Z,5.6
2016-12-02T05:57:44.077Z,5.6
2016-12-02T05:58:45.556Z,5.6
2016-12-02T05:59:47.038Z,5.6
2016-12-02T06:00:48.520Z,5.6
2016-12-02T06:01:50.003Z,5.6
2016-12-02T06:02:51.479Z,5.5
2016-12-02T06:03:52.958Z,5.5
2016-12-02T06:04:54.939Z,5.5
2016-12-02T06:05:56.414Z,5.5
2016-12-02T06:06:57.892Z,5.5
2016-12-02T06:07:59.375Z,5.4
2016-12-02T06:09:00.987Z,5.4
2016-12-02T06:11:03.859Z,5.4
2016-12-02T06:12:05.338Z,5.4
2016-12-02T06:13:06.950Z,5.4
2016-12-02T06:14:08.572Z,5.3
2016-12-02T06:15:10.054Z,5.3
2016-12-02T06:16:11.538Z,5.3
2016-12-02T06:17:13.019Z,5.3
2016-12-02T06:18:14.498Z,5.3
2016-12-02T06:19:15.975Z,5.3
2016-12-02T06:21:19.357Z,5.2
2016-12-02T06:22:20.834Z,5.2
2016-12-02T06:23:22.313Z,5.2
2016-12-02T06:24:23.790Z,5.2
2016-12-02T06:25:25.271Z,5.2
2016-12-02T06:26:26.748Z,5.2
2016-12-02T06:27:28.222Z,5.2
2016-12-02T06:28:29.701Z,5.2
2016-12-02T06:29:31.677Z,5.1
2016-12-02T06:30:33.153Z,5.1
2016-12-02T06:31:34.630Z,5.1
2016-12-02T06:32:36.110Z,5.1
2016-12-02T06:33:37.596Z,5.1
2016-12-02T06:34:39.078Z,5.1
2016-12-02T06:35:40.562Z,5.1
2016-12-02T06:36:42.039Z,5.1
2016-12-02T06:37:43.560Z,5.1
2016-12-02T06:38:45.041Z,5.1
2016-12-02T06:39:46.519Z,5.1
2016-12-02T06:40:47.998Z,5.1
2016-12-02T06:42:51.390Z,5.1
2016-12-02T06:43:52.866Z,5.1
2016-12-02T06:44:54.349Z,5
2016-12-02T06:45:55.830Z,5.1
2016-12-02T06:46:57.311Z,5
2016-12-02T06:47:58.794Z,5
2016-12-02T06:49:00.275Z,5
2016-12-02T06:50:01.752Z,5
2016-12-02T06:51:03.235Z,5
2016-12-02T06:52:05.216Z,5
2016-12-02T06:53:06.695Z,5
2016-12-02T06:54:08.174Z,5
2016-12-02T06:55:09.660Z,5
2016-12-02T06:56:11.134Z,5
2016-12-02T06:57:12.609Z,4.9
2016-12-02T06:58:14.088Z,4.9
2016-12-02T06:59:15.560Z,4.9
2016-12-02T07:00:17.041Z,4.9
2016-12-02T07:01:18.520Z,4.9
2016-12-02T07:02:20.000Z,4.9
2016-12-02T07:03:21.483Z,4.9
2016-12-02T07:04:22.956Z,4.9
2016-12-02T07:05:24.943Z,4.9
2016-12-02T07:06:26.426Z,4.9
2016-12-02T07:07:27.903Z,4.9
2016-12-02T07:08:29.383Z,4.9
2016-12-02T07:09:30.862Z,4.9
2016-12-02T07:10:32.344Z,4.8
2016-12-02T07:11:33.824Z,4.8
2016-12-02T07:12:35.298Z,4.8
2016-12-02T07:13:36.774Z,4.8
2016-12-02T07:14:38.253Z,4.8
2016-12-02T07:15:39.734Z,4.8
2016-12-02T07:16:41.209Z,4.8
2016-12-02T07:17:42.689Z,4.8
2016-12-02T07:18:44.754Z,4.8
2016-12-02T07:19:45.728Z,4.8
2016-12-02T07:20:47.205Z,4.8
2016-12-02T07:21:49.196Z,4.8
2016-12-02T07:22:50.709Z,4.8
2016-12-02T07:26:56.396Z,4.7
2016-12-02T07:27:57.871Z,4.7
2016-12-02T07:28:59.354Z,4.7
2016-12-02T07:30:00.972Z,4.7
2016-12-02T07:31:02.449Z,4.7
2016-12-02T07:32:03.927Z,4.7
2016-12-02T07:33:05.405Z,4.7
2016-12-02T07:34:06.913Z,4.7
2016-12-02T07:35:08.392Z,4.7
2016-12-02T07:36:10.376Z,4.7
2016-12-02T07:37:11.854Z,4.7
2016-12-02T07:38:13.333Z,4.7
2016-12-02T07:39:14.809Z,4.7
2016-12-02T07:40:16.293Z,4.7
2016-12-02T07:41:17.774Z,4.7
2016-12-02T07:42:19.252Z,4.7
2016-12-02T07:43:20.871Z,4.7
2016-12-02T07:44:22.348Z,4.7
2016-12-02T07:45:23.829Z,4.7
2016-12-02T07:46:25.316Z,4.7
2016-12-02T07:47:26.797Z,4.7
2016-12-02T07:48:28.407Z,4.7
2016-12-02T07:49:29.966Z,4.7
2016-12-02T07:50:31.447Z,4.7
2016-12-02T07:51:32.930Z,4.7
2016-12-02T07:52:34.410Z,4.7
2016-12-02T07:53:35.895Z,4.7
2016-12-02T07:54:37.375Z,4.7
2016-12-02T07:55:38.851Z,4.7
2016-12-02T07:56:40.328Z,4.7
2016-12-02T07:57:41.802Z,4.7
2016-12-02T07:58:43.288Z,4.7
2016-12-02T07:59:44.769Z,4.7
2016-12-02T08:00:46.247Z,4.7
2016-12-02T08:01:47.722Z,4.8
2016-12-02T08:02:49.202Z,4.8
2016-12-02T08:03:50.679Z,4.8
2016-12-02T08:04:52.152Z,4.8
2016-12-02T08:06:55.541Z,4.8
2016-12-02T08:08:58.420Z,4.8
2016-12-02T08:09:59.910Z,4.8
2016-12-02T08:11:01.392Z,4.8
2016-12-02T08:12:02.876Z,4.8
2016-12-02T08:13:04.355Z,4.8
2016-12-02T08:14:05.835Z,4.8
2016-12-02T08:15:07.315Z,4.8
2016-12-02T08:16:08.793Z,4.8
2016-12-02T08:17:10.772Z,4.8
2016-12-02T08:18:12.247Z,4.8
2016-12-02T08:19:13.733Z,4.8
2016-12-02T08:20:15.212Z,4.8
2016-12-02T08:21:16.684Z,4.9
2016-12-02T08:22:18.157Z,4.8
2016-12-02T08:23:19.780Z,4.8
2016-12-02T08:24:21.259Z,4.8
2016-12-02T08:25:22.739Z,4.9
2016-12-02T08:26:24.224Z,4.8
2016-12-02T08:27:25.700Z,4.8
2016-12-02T08:28:27.180Z,4.8
2016-12-02T08:29:28.662Z,4.8
2016-12-02T08:30:30.143Z,4.8
2016-12-02T08:31:31.618Z,4.8
2016-12-02T08:32:33.100Z,4.8
2016-12-02T08:33:34.576Z,4.8
2016-12-02T08:34:36.056Z,4.8
2016-12-02T08:35:38.038Z,4.8
2016-12-02T08:36:39.522Z,4.8
2016-12-02T08:37:41.008Z,4.8
2016-12-02T08:38:42.493Z,4.8
2016-12-02T08:39:44.036Z,4.8
2016-12-02T08:40:45.520Z,4.8
2016-12-02T08:41:46.996Z,4.8
2016-12-02T08:42:48.478Z,4.8
2016-12-02T08:43:49.962Z,4.8
2016-12-02T08:44:51.437Z,4.8
2016-12-02T08:45:52.914Z,4.8
2016-12-02T08:46:54.396Z,4.8
2016-12-02T08:47:55.878Z,4.8
2016-12-02T08:48:57.356Z,4.8
2016-12-02T08:49:58.831Z,4.8
2016-12-02T08:51:00.314Z,4.8
2016-12-02T08:52:01.800Z,4.8
2016-12-02T08:54:05.181Z,4.8
2016-12-02T08:55:06.661Z,4.8
2016-12-02T08:56:08.141Z,4.8
2016-12-02T08:57:09.615Z,4.8
2016-12-02T08:58:11.093Z,4.8
2016-12-02T08:59:12.568Z,4.8
2016-12-02T09:00:14.048Z,4.8
2016-12-02T09:01:15.560Z,4.8
2016-12-02T09:02:17.109Z,4.8
2016-12-02T09:03:18.586Z,4.8
2016-12-02T09:04:20.068Z,4.8
2016-12-02T09:05:21.544Z,4.8
2016-12-02T09:06:23.025Z,4.8
2016-12-02T09:07:24.508Z,4.8
2016-12-02T09:08:25.983Z,4.8
2016-12-02T09:09:27.462Z,4.8
2016-12-02T09:10:28.936Z,4.8
2016-12-02T09:11:30.923Z,4.8
2016-12-02T09:12:32.399Z,4.8
2016-12-02T09:13:33.877Z,4.8
2016-12-02T09:14:34.989Z,4.8
2016-12-02T09:15:36.977Z,4.8
2016-12-02T09:16:38.494Z,4.8
2016-12-02T09:17:39.976Z,4.8
2016-12-02T09:18:41.457Z,4.8
2016-12-02T09:19:42.945Z,4.8
2016-12-02T09:20:44.422Z,4.8
2016-12-02T09:21:45.907Z,4.8
2016-12-02T09:22:47.383Z,4.8
2016-12-02T09:23:48.864Z,4.8
2016-12-02T09:24:50.350Z,4.8
2016-12-02T09:25:51.828Z,4.8
2016-12-02T09:26:53.311Z,4.8
2016-12-02T09:27:54.785Z,4.8
2016-12-02T09:28:56.258Z,4.8
2016-12-02T09:29:57.736Z,4.8
2016-12-02T09:30:59.221Z,4.8
2016-12-02T09:32:00.706Z,4.8
2016-12-02T09:33:02.185Z,4.8
2016-12-02T09:34:03.680Z,4.8
2016-12-02T09:37:08.463Z,4.8
2016-12-02T09:38:09.943Z,4.8
2016-12-02T09:39:11.418Z,4.8
2016-12-02T09:40:12.897Z,4.8
2016-12-02T09:41:14.402Z,4.8
2016-12-02T09:42:15.886Z,4.8
2016-12-02T09:44:19.271Z,4.8
2016-12-02T09:46:22.158Z,4.8
2016-12-02T09:47:23.666Z,4.8
2016-12-02T09:48:25.156Z,4.8
2016-12-02T09:49:26.646Z,4.8
2016-12-02T09:51:29.524Z,4.8
2016-12-02T09:52:31.001Z,4.8
2016-12-02T09:53:32.484Z,4.8
2016-12-02T09:54:33.965Z,4.8
2016-12-02T09:55:35.455Z,4.8
2016-12-02T09:56:36.941Z,4.8
2016-12-02T09:58:40.319Z,4.8
2016-12-02T09:59:41.796Z,4.8
2016-12-02T10:00:43.275Z,4.8
2016-12-02T10:01:44.757Z,4.8
2016-12-02T10:02:46.240Z,4.8
2016-12-02T10:03:47.751Z,4.8
2016-12-02T10:04:49.228Z,4.7
2016-12-02T10:05:50.702Z,4.7
2016-12-02T10:06:52.185Z,4.7
2016-12-02T10:07:53.665Z,4.7
2016-12-02T10:08:55.145Z,4.7
2016-12-02T10:09:56.625Z,4.7
2016-12-02T10:10:58.101Z,4.7
2016-12-02T10:11:59.586Z,4.7
2016-12-02T10:13:01.568Z,4.7
2016-12-02T10:14:03.100Z,4.7
2016-12-02T10:15:04.585Z,4.7
2016-12-02T10:16:06.065Z,4.7
2016-12-02T10:17:07.546Z,4.7
2016-12-02T10:18:09.027Z,4.7
2016-12-02T10:19:10.513Z,4.7
2016-12-02T10:20:11.993Z,4.7
2016-12-02T10:21:13.479Z,4.7
2016-12-02T10:22:14.978Z,4.7
2016-12-02T10:23:16.458Z,4.7
2016-12-02T10:24:17.939Z,4.7
2016-12-02T10:25:19.417Z,4.7
2016-12-02T10:26:20.892Z,4.8
2016-12-02T10:27:22.373Z,4.8
2016-12-02T10:28:23.854Z,4.7
2016-12-02T10:29:25.336Z,4.7
2016-12-02T10:30:26.815Z,4.8
2016-12-02T10:31:28.291Z,4.7
2016-12-02T10:32:30.284Z,4.7
2016-12-02T10:33:31.765Z,4.7
2016-12-02T10:34:33.241Z,4.7
2016-12-02T10:35:34.716Z,4.8
2016-12-02T10:36:36.191Z,4.8
2016-12-02T10:37:37.669Z,4.8
2016-12-02T10:38:39.152Z,4.8
2016-12-02T10:39:40.639Z,4.8
2016-12-02T10:40:42.117Z,4.8
2016-12-02T10:41:43.602Z,4.8
2016-12-02T10:43:46.484Z,4.8
2016-12-02T10:44:47.968Z,4.8
2016-12-02T10:45:49.450Z,4.8
2016-12-02T10:46:50.924Z,4.8
2016-12-02T10:47:52.908Z,4.8
2016-12-02T10:48:54.388Z,4.8
2016-12-02T10:49:55.878Z,4.8
2016-12-02T10:50:57.417Z,4.8
2016-12-02T10:51:58.901Z,4.8
2016-12-02T10:53:00.377Z,4.8
2016-12-02T10:54:01.851Z,4.8
2016-12-02T10:55:03.328Z,4.8
2016-12-02T10:56:04.805Z,4.8
2016-12-02T10:57:06.283Z,4.8
2016-12-02T10:58:07.757Z,4.8
2016-12-02T10:59:09.379Z,4.8
2016-12-02T11:00:10.863Z,4.8
2016-12-02T11:01:12.344Z,4.8
2016-12-02T11:02:13.818Z,4.8
2016-12-02T11:03:15.611Z,4.8
2016-12-02T11:04:16.737Z,4.8
2016-12-02T11:05:18.358Z,4.8
2016-12-02T11:06:19.835Z,4.8
2016-12-02T11:07:21.308Z,4.8
2016-12-02T11:08:22.787Z,4.8
2016-12-02T11:09:24.270Z,4.8
2016-12-02T11:10:25.750Z,4.8
2016-12-02T11:11:27.251Z,4.8
2016-12-02T11:12:28.725Z,4.8
2016-12-02T11:13:30.202Z,4.8
2016-12-02T11:14:32.180Z,4.8
2016-12-02T11:15:33.658Z,4.8
2016-12-02T11:16:35.133Z,4.8
2016-12-02T11:17:36.630Z,4.8
2016-12-02T11:18:38.110Z,4.8
2016-12-02T11:19:39.596Z,4.8
2016-12-02T11:20:41.150Z,4.8
2016-12-02T11:21:42.629Z,4.8
2016-12-02T11:22:44.108Z,4.8
2016-12-02T11:23:45.587Z,4.8
2016-12-02T11:24:47.063Z,4.8
2016-12-02T11:25:48.543Z,4.8
2016-12-02T11:26:50.100Z,4.8
2016-12-02T11:27:51.577Z,4.8
2016-12-02T11:28:53.055Z,4.8
2016-12-02T11:29:54.534Z,4.8
2016-12-02T11:30:56.091Z,4.8
2016-12-02T11:31:57.571Z,4.8
2016-12-02T11:32:59.047Z,4.8
2016-12-02T11:34:00.529Z,4.8
2016-12-02T11:35:02.009Z,4.8
2016-12-02T11:36:03.617Z,4.8
2016-12-02T11:37:05.094Z,4.8
2016-12-02T11:38:06.570Z,4.8
2016-12-02T11:39:08.047Z,4.8
2016-12-02T11:40:09.526Z,4.8
2016-12-02T11:41:11.008Z,4.8
2016-12-02T11:42:12.489Z,4.8
2016-12-02T11:43:14.475Z,4.8
2016-12-02T11:44:15.954Z,4.8
2016-12-02T11:45:17.428Z,4.8
2016-12-02T11:46:18.935Z,4.8
2016-12-02T11:47:20.410Z,4.8
2016-12-02T11:48:21.888Z,4.8
2016-12-02T11:49:23.365Z,4.8
2016-12-02T11:50:24.839Z,4.8
2016-12-02T11:51:26.319Z,4.8
2016-12-02T11:52:27.791Z,4.8
2016-12-02T11:53:29.348Z,4.8
2016-12-02T11:54:30.826Z,4.9
2016-12-02T11:55:32.307Z,4.8
2016-12-02T11:56:33.784Z,4.8
2016-12-02T11:57:35.267Z,4.8
2016-12-02T11:58:36.747Z,4.8
2016-12-02T11:59:38.233Z,4.8
2016-12-02T12:00:39.706Z,4.8
2016-12-02T12:01:41.691Z,4.8
2016-12-02T12:02:43.177Z,4.8
2016-12-02T12:03:44.652Z,4.8
2016-12-02T12:04:46.132Z,4.8
2016-12-02T12:05:47.609Z,4.8
2016-12-02T12:06:49.093Z,4.8
2016-12-02T12:07:50.571Z,4.8
2016-12-02T12:08:52.055Z,4.8
2016-12-02T12:09:53.530Z,4.8
2016-12-02T12:10:55.011Z,4.8
2016-12-02T12:11:56.490Z,4.8
2016-12-02T12:12:57.985Z,4.8
2016-12-02T12:13:59.479Z,4.8
2016-12-02T12:15:00.954Z,4.8
2016-12-02T12:16:02.439Z,4.8
2016-12-02T12:17:03.914Z,4.9
2016-12-02T12:18:05.895Z,4.9
2016-12-02T12:19:07.383Z,4.9
2016-12-02T12:20:08.864Z,4.9
2016-12-02T12:21:10.338Z,4.9
2016-12-02T12:22:11.817Z,4.9
2016-12-02T12:23:13.294Z,4.9
2016-12-02T12:24:14.771Z,4.9
2016-12-02T12:25:16.254Z,4.9
2016-12-02T12:26:17.745Z,4.9
2016-12-02T12:27:19.229Z,4.9
2016-12-02T12:28:20.708Z,5
2016-12-02T12:29:22.186Z,5
2016-12-02T12:30:23.664Z,5
2016-12-02T12:31:25.138Z,5
2016-12-02T12:32:26.627Z,5
2016-12-02T12:33:28.621Z,5
2016-12-02T12:34:30.104Z,5
2016-12-02T12:35:31.588Z,5
2016-12-02T12:36:33.068Z,5
2016-12-02T12:37:34.545Z,5
2016-12-02T12:39:37.425Z,5
2016-12-02T12:40:38.907Z,5
2016-12-02T12:41:40.385Z,5
2016-12-02T12:42:41.874Z,5
2016-12-02T12:43:43.352Z,5
2016-12-02T12:44:44.830Z,5
2016-12-02T12:45:46.811Z,5
2016-12-02T12:46:48.290Z,5
2016-12-02T12:47:49.765Z,5
2016-12-02T12:48:51.248Z,5
2016-12-02T12:49:52.726Z,5
2016-12-02T12:50:54.211Z,5
2016-12-02T12:51:55.686Z,5
2016-12-02T12:52:57.169Z,5
2016-12-02T12:53:58.650Z,5
2016-12-02T12:55:00.132Z,5
2016-12-02T12:56:01.610Z,5
2016-12-02T12:57:03.087Z,5
2016-12-02T12:58:04.566Z,5
2016-12-02T12:59:06.047Z,5
2016-12-02T13:00:08.030Z,5
2016-12-02T13:02:10.903Z,5
2016-12-02T13:03:12.377Z,5
2016-12-02T13:04:13.862Z,5
2016-12-02T13:05:15.381Z,5
2016-12-02T13:06:16.861Z,5
2016-12-02T13:07:18.335Z,5
2016-12-02T13:08:19.816Z,5
2016-12-02T13:09:21.298Z,5
2016-12-02T13:10:22.774Z,5
2016-12-02T13:11:24.261Z,5
2016-12-02T13:12:25.743Z,5
2016-12-02T13:13:27.720Z,5
2016-12-02T13:14:29.196Z,5
2016-12-02T13:15:30.679Z,5
2016-12-02T13:16:32.158Z,5
2016-12-02T13:18:35.038Z,4.9
2016-12-02T13:19:36.518Z,5
2016-12-02T13:20:38.000Z,4.9
2016-12-02T13:21:39.481Z,4.9
2016-12-02T13:22:40.969Z,4.9
2016-12-02T13:23:42.449Z,4.9
2016-12-02T13:24:44.059Z,4.9
2016-12-02T13:25:45.538Z,4.9
2016-12-02T13:26:47.031Z,4.9
2016-12-02T13:27:48.512Z,4.9
2016-12-02T13:28:49.989Z,4.9
2016-12-02T13:29:51.971Z,4.9
2016-12-02T13:30:53.453Z,4.9
2016-12-02T13:31:54.932Z,4.9
2016-12-02T13:32:56.415Z,4.9
2016-12-02T13:34:59.297Z,4.9
2016-12-02T13:36:00.771Z,4.9
2016-12-02T13:37:02.250Z,4.9
2016-12-02T13:38:03.728Z,4.9
2016-12-02T13:39:05.205Z,4.9
2016-12-02T13:40:06.684Z,4.9
2016-12-02T13:41:08.172Z,4.9
2016-12-02T13:42:09.922Z,4.9
2016-12-02T13:43:11.398Z,4.9
2016-12-02T13:44:12.872Z,4.9
2016-12-02T13:45:14.352Z,4.9
2016-12-02T13:46:15.832Z,4.9
2016-12-02T13:47:17.320Z,4.9
2016-12-02T13:48:18.796Z,4.9
2016-12-02T13:49:20.277Z,4.9
2016-12-02T13:50:22.257Z,4.9
2016-12-02T13:51:23.733Z,4.9
2016-12-02T13:52:25.213Z,4.9
2016-12-02T13:53:26.697Z,4.9
2016-12-02T13:54:28.178Z,4.8
2016-12-02T13:55:29.660Z,4.9
2016-12-02T13:56:31.140Z,4.8
2016-12-02T13:57:32.623Z,4.8
2016-12-02T13:58:34.109Z,4.8
2016-12-02T13:59:35.587Z,4.8
2016-12-02T14:00:37.058Z,4.8
2016-12-02T14:01:38.536Z,4.8
2016-12-02T14:02:40.016Z,4.8
2016-12-02T14:03:41.496Z,4.8
2016-12-02T14:04:42.972Z,4.8
2016-12-02T14:05:44.961Z,4.8
2016-12-02T14:06:46.438Z,4.8
2016-12-02T14:07:47.916Z,4.8
2016-12-02T14:08:49.391Z,4.8
2016-12-02T14:10:52.416Z,4.8
2016-12-02T14:11:53.892Z,4.8
2016-12-02T14:12:55.369Z,4.8
2016-12-02T14:13:56.846Z,4.8
2016-12-02T14:14:58.331Z,4.8
2016-12-02T14:15:59.804Z,4.8
2016-12-02T14:17:01.285Z,4.8
2016-12-02T14:18:02.761Z,4.8
2016-12-02T14:20:05.658Z,4.8
2016-12-02T14:21:07.647Z,4.8
2016-12-02T14:22:09.121Z,4.8
2016-12-02T14:23:10.600Z,4.7
2016-12-02T14:24:12.082Z,4.7
2016-12-02T14:25:13.560Z,4.7
2016-12-02T14:26:15.038Z,4.7
2016-12-02T14:27:16.517Z,4.7
2016-12-02T14:28:17.993Z,4.7
2016-12-02T14:29:19.474Z,4.7
2016-12-02T14:30:20.953Z,4.7
2016-12-02T14:31:22.434Z,4.7
2016-12-02T14:32:23.910Z,4.7
2016-12-02T14:33:25.394Z,4.7
2016-12-02T14:34:26.870Z,4.7
2016-12-02T14:35:28.348Z,4.7
2016-12-02T14:36:29.824Z,4.7
2016-12-02T14:37:31.800Z,4.7
2016-12-02T14:38:33.275Z,4.7
2016-12-02T14:39:34.760Z,4.7
2016-12-02T14:40:36.235Z,4.7
2016-12-02T14:41:37.714Z,4.6
2016-12-02T14:42:39.195Z,4.6
2016-12-02T14:43:40.698Z,4.6
2016-12-02T14:44:42.194Z,4.6
2016-12-02T14:45:43.670Z,4.6
2016-12-02T14:46:45.150Z,4.6
2016-12-02T14:47:46.627Z,4.6
2016-12-02T14:49:49.506Z,4.6
2016-12-02T14:50:50.990Z,4.6
2016-12-02T14:51:52.472Z,4.6
2016-12-02T14:52:54.458Z,4.6
2016-12-02T14:53:55.935Z,4.6
2016-12-02T14:54:57.414Z,4.6
2016-12-02T14:55:58.892Z,4.5
2016-12-02T14:57:00.369Z,4.6
2016-12-02T14:58:01.852Z,4.5
2016-12-02T14:59:03.327Z,4.5
2016-12-02T15:01:06.197Z,4.5